Airfield :
LOGIN :

Register | Disclaimer

   EN    FR    IT 

 










Legend :    VFR   Marginal VFR   IFR   Intensive IFR   Very Intensive IFR
Visi :
Ceiling :
>= 8 km
>= 3000ft
5 to 8 km
1000 to 3000 ft
1500m to 5 km
500 to 1000 ft
800 to 1500m
200 to 500 ft
< 800m
< 200 ft
Symbols :   Thunderstorms  Fog  Heavy snow  Heavy precipitations  Wind > 20 kt
SIGMETs :     Misc.  Thunderstorms  Icing  Turbulence  Mountain Waves  Volcanic Ashes






- Airport Elevation : 187 ft


ETNW - Wunstorf AB

CURRENT METAR :
  • 281320Z 26022G33KT 9999 FEW015 BKN020 BKN035 06/02 Q0989 WHT BLU TEMPO GRN

EXPIRED METARs :
  • 281220Z 25020G31KT 9999 FEW015 BKN021 BKN035 06/02 Q0988 WHT BLU TEMPO GRN
  • 281120Z 25014KT 9999 FEW015 BKN020 BKN030 06/03 Q0988 WHT BLU TEMPO GRN

TAF TAF ETNW
Valid from the 28 at 12:00 until the 29 at 12:00 UTC


281100Z 2812/2912 24015G25KT 9999 NSW SCT015 BKN030
TEMPO 2812/2821 25020G35KT 4000 SHRA SCT007 BKN015CB
PROB30 2812/2818 26020G40KT 2000 TSRAGS BKN007 BKN012CB
TEMPO 2821/2912 25015G30KT 5000 -SHRASN SCT010 BKN020TCU BY ETGL



MET'MAP, your aeronautical weather chart ! - Copyright ORBIFLY December 2007 - Disclaimer

ORBIFLY MET'MAP TEAM :

Programming & Development : Alexandra Zaïnal
Concept & original design : Baudouin d'Aumeries
Assistance for programming : Marc-Olivier Méhu
Technical & hardware support : Manuel Goepfert

Contact : metmap@orbifly.com




SOURCES & CREDITS :

   NOAA